sensor_id;sensor_type;location;lat;lon;timestamp;pressure;altitude;pressure_sealevel;temperature;humidity
20987;BME280;10652;50.306;8.570;2023-01-25T00:00:55;99774.97;;;-0.43;100.00
20987;BME280;10652;50.306;8.570;2023-01-25T00:04:57;99774.50;;;-0.27;100.00
20987;BME280;10652;50.306;8.570;2023-01-25T00:08:59;99765.38;;;-0.13;100.00
20987;BME280;10652;50.306;8.570;2023-01-25T00:13:01;99768.81;;;-0.12;100.00
20987;BME280;10652;50.306;8.570;2023-01-25T00:17:03;99760.25;;;-0.11;100.00
20987;BME280;10652;50.306;8.570;2023-01-25T00:21:30;99756.06;;;-0.06;100.00
20987;BME280;10652;50.306;8.570;2023-01-25T00:25:32;99754.72;;;0.11;100.00
20987;BME280;10652;50.306;8.570;2023-01-25T00:29:34;99754.56;;;0.05;100.00
20987;BME280;10652;50.306;8.570;2023-01-25T00:37:42;99750.19;;;0.01;100.00
20987;BME280;10652;50.306;8.570;2023-01-25T00:41:45;99744.41;;;0.12;100.00
20987;BME280;10652;50.306;8.570;2023-01-25T00:45:47;99740.53;;;0.31;100.00
20987;BME280;10652;50.306;8.570;2023-01-25T00:49:49;99731.06;;;0.33;100.00
20987;BME280;10652;50.306;8.570;2023-01-25T00:53:51;99742.38;;;-0.02;100.00
20987;BME280;10652;50.306;8.570;2023-01-25T00:57:54;99738.53;;;-0.19;100.00
20987;BME280;10652;50.306;8.570;2023-01-25T01:01:56;99741.88;;;-0.24;100.00
20987;BME280;10652;50.306;8.570;2023-01-25T01:06:09;99731.66;;;-0.19;100.00
20987;BME280;10652;50.306;8.570;2023-01-25T01:10:11;99744.53;;;-0.21;100.00
20987;BME280;10652;50.306;8.570;2023-01-25T01:14:13;99747.88;;;-0.25;100.00
20987;BME280;10652;50.306;8.570;2023-01-25T01:18:16;99736.72;;;-0.24;100.00
20987;BME280;10652;50.306;8.570;2023-01-25T01:22:19;99744.16;;;-0.36;100.00
20987;BME280;10652;50.306;8.570;2023-01-25T01:26:21;99740.34;;;-0.15;100.00
20987;BME280;10652;50.306;8.570;2023-01-25T01:30:23;99747.75;;;0.07;100.00
20987;BME280;10652;50.306;8.570;2023-01-25T01:34:26;99745.28;;;0.13;100.00
20987;BME280;10652;50.306;8.570;2023-01-25T01:38:28;99742.47;;;0.02;100.00
20987;BME280;10652;50.306;8.570;2023-01-25T01:42:30;99743.13;;;-0.06;100.00
20987;BME280;10652;50.306;8.570;2023-01-25T01:46:38;99734.47;;;-0.10;100.00
20987;BME280;10652;50.306;8.570;2023-01-25T01:50:49;99734.06;;;-0.27;100.00
20987;BME280;10652;50.306;8.570;2023-01-25T01:54:56;99732.97;;;-0.36;100.00
20987;BME280;10652;50.306;8.570;2023-01-25T01:59:00;99726.75;;;-0.46;100.00
20987;BME280;10652;50.306;8.570;2023-01-25T02:03:04;99723.91;;;-0.56;100.00
20987;BME280;10652;50.306;8.570;2023-01-25T02:07:14;99728.13;;;-0.60;100.00
20987;BME280;10652;50.306;8.570;2023-01-25T02:11:21;99725.53;;;-0.60;100.00
20987;BME280;10652;50.306;8.570;2023-01-25T02:15:27;99712.97;;;-0.45;100.00
20987;BME280;10652;50.306;8.570;2023-01-25T02:19:52;99722.06;;;-0.25;100.00
20987;BME280;10652;50.306;8.570;2023-01-25T02:24:03;99720.34;;;-0.24;100.00
20987;BME280;10652;50.306;8.570;2023-01-25T02:28:22;99727.38;;;-0.18;100.00
20987;BME280;10652;50.306;8.570;2023-01-25T02:32:25;99720.66;;;-0.10;100.00
20987;BME280;10652;50.306;8.570;2023-01-25T02:36:32;99714.72;;;-0.06;100.00
20987;BME280;10652;50.306;8.570;2023-01-25T02:40:41;99716.97;;;-0.22;100.00
20987;BME280;10652;50.306;8.570;2023-01-25T02:44:46;99715.00;;;-0.32;100.00
20987;BME280;10652;50.306;8.570;2023-01-25T02:48:48;99709.56;;;-0.44;100.00
20987;BME280;10652;50.306;8.570;2023-01-25T02:52:50;99709.19;;;-0.59;100.00
20987;BME280;10652;50.306;8.570;2023-01-25T02:56:53;99705.00;;;-0.55;100.00
20987;BME280;10652;50.306;8.570;2023-01-25T03:00:57;99704.25;;;-0.50;100.00
20987;BME280;10652;50.306;8.570;2023-01-25T03:05:00;99699.91;;;-0.52;100.00
20987;BME280;10652;50.306;8.570;2023-01-25T03:09:04;99694.84;;;-0.48;100.00
20987;BME280;10652;50.306;8.570;2023-01-25T03:13:07;99687.88;;;-0.52;100.00
20987;BME280;10652;50.306;8.570;2023-01-25T03:17:10;99688.63;;;-0.56;100.00
20987;BME280;10652;50.306;8.570;2023-01-25T03:21:17;99689.34;;;-0.61;100.00
20987;BME280;10652;50.306;8.570;2023-01-25T03:25:20;99683.31;;;-0.62;100.00
20987;BME280;10652;50.306;8.570;2023-01-25T03:29:31;99680.47;;;-0.73;100.00
20987;BME280;10652;50.306;8.570;2023-01-25T03:33:34;99679.47;;;-0.79;100.00
20987;BME280;10652;50.306;8.570;2023-01-25T03:37:37;99671.69;;;-0.81;100.00
20987;BME280;10652;50.306;8.570;2023-01-25T03:41:39;99658.78;;;-0.82;100.00
20987;BME280;10652;50.306;8.570;2023-01-25T03:45:44;99667.56;;;-0.74;100.00
20987;BME280;10652;50.306;8.570;2023-01-25T03:49:47;99668.22;;;-0.81;100.00
20987;BME280;10652;50.306;8.570;2023-01-25T03:53:52;99658.44;;;-0.96;100.00
20987;BME280;10652;50.306;8.570;2023-01-25T03:57:55;99666.88;;;-1.01;100.00
20987;BME280;10652;50.306;8.570;2023-01-25T04:01:57;99658.16;;;-1.06;100.00
20987;BME280;10652;50.306;8.570;2023-01-25T04:06:00;99652.00;;;-1.12;100.00
20987;BME280;10652;50.306;8.570;2023-01-25T04:10:05;99663.38;;;-1.03;100.00
20987;BME280;10652;50.306;8.570;2023-01-25T04:14:09;99656.78;;;-0.92;100.00
20987;BME280;10652;50.306;8.570;2023-01-25T04:18:19;99655.31;;;-0.81;100.00
20987;BME280;10652;50.306;8.570;2023-01-25T04:22:21;99651.97;;;-0.79;100.00
20987;BME280;10652;50.306;8.570;2023-01-25T04:26:26;99639.56;;;-0.57;100.00
20987;BME280;10652;50.306;8.570;2023-01-25T04:30:32;99649.56;;;-0.34;100.00
20987;BME280;10652;50.306;8.570;2023-01-25T04:34:35;99639.28;;;-0.31;100.00
20987;BME280;10652;50.306;8.570;2023-01-25T04:38:38;99639.88;;;-0.44;100.00
20987;BME280;10652;50.306;8.570;2023-01-25T04:42:40;99626.28;;;-0.37;100.00
20987;BME280;10652;50.306;8.570;2023-01-25T04:46:42;99626.38;;;-0.32;100.00
20987;BME280;10652;50.306;8.570;2023-01-25T04:50:45;99619.72;;;-0.58;100.00
20987;BME280;10652;50.306;8.570;2023-01-25T04:54:48;99614.94;;;-0.81;100.00
20987;BME280;10652;50.306;8.570;2023-01-25T04:58:51;99613.78;;;-0.93;100.00
20987;BME280;10652;50.306;8.570;2023-01-25T05:02:53;99607.84;;;-0.89;100.00
20987;BME280;10652;50.306;8.570;2023-01-25T05:06:56;99609.66;;;-0.87;100.00
20987;BME280;10652;50.306;8.570;2023-01-25T05:10:59;99599.22;;;-0.90;100.00
20987;BME280;10652;50.306;8.570;2023-01-25T05:15:30;99592.31;;;-0.92;100.00
20987;BME280;10652;50.306;8.570;2023-01-25T05:19:32;99591.59;;;-0.85;100.00
20987;BME280;10652;50.306;8.570;2023-01-25T05:23:38;99600.31;;;-0.80;100.00
20987;BME280;10652;50.306;8.570;2023-01-25T05:27:40;99589.72;;;-0.92;100.00
20987;BME280;10652;50.306;8.570;2023-01-25T05:32:10;99590.72;;;-0.87;100.00
20987;BME280;10652;50.306;8.570;2023-01-25T05:36:13;99593.19;;;-0.92;100.00
20987;BME280;10652;50.306;8.570;2023-01-25T05:40:16;99589.84;;;-0.86;100.00
20987;BME280;10652;50.306;8.570;2023-01-25T05:44:19;99592.63;;;-0.79;100.00
20987;BME280;10652;50.306;8.570;2023-01-25T05:48:24;99590.06;;;-0.77;100.00
20987;BME280;10652;50.306;8.570;2023-01-25T05:52:28;99579.69;;;-0.80;100.00
20987;BME280;10652;50.306;8.570;2023-01-25T05:56:31;99583.66;;;-0.57;100.00
20987;BME280;10652;50.306;8.570;2023-01-25T06:00:33;99580.88;;;-0.66;100.00
20987;BME280;10652;50.306;8.570;2023-01-25T06:04:36;99581.91;;;-0.58;100.00
20987;BME280;10652;50.306;8.570;2023-01-25T06:08:38;99586.03;;;-0.66;100.00
20987;BME280;10652;50.306;8.570;2023-01-25T06:12:41;99580.44;;;-0.84;100.00
20987;BME280;10652;50.306;8.570;2023-01-25T06:16:43;99580.31;;;-0.90;100.00
20987;BME280;10652;50.306;8.570;2023-01-25T06:21:04;99575.84;;;-0.97;100.00
20987;BME280;10652;50.306;8.570;2023-01-25T06:25:10;99577.56;;;-0.98;100.00
20987;BME280;10652;50.306;8.570;2023-01-25T06:29:13;99587.06;;;-0.95;100.00
20987;BME280;10652;50.306;8.570;2023-01-25T06:33:15;99589.94;;;-0.83;100.00
20987;BME280;10652;50.306;8.570;2023-01-25T06:37:17;99585.31;;;-0.59;100.00
20987;BME280;10652;50.306;8.570;2023-01-25T06:41:19;99586.44;;;-0.48;100.00
20987;BME280;10652;50.306;8.570;2023-01-25T06:45:21;99585.88;;;-0.33;100.00
20987;BME280;10652;50.306;8.570;2023-01-25T06:49:23;99585.09;;;-0.29;100.00
20987;BME280;10652;50.306;8.570;2023-01-25T06:53:26;99591.00;;;-0.35;100.00
20987;BME280;10652;50.306;8.570;2023-01-25T06:57:29;99586.72;;;-0.34;100.00
20987;BME280;10652;50.306;8.570;2023-01-25T07:01:31;99582.28;;;-0.40;100.00
20987;BME280;10652;50.306;8.570;2023-01-25T07:05:34;99587.59;;;-0.34;100.00
20987;BME280;10652;50.306;8.570;2023-01-25T07:09:36;99582.28;;;-0.40;100.00
20987;BME280;10652;50.306;8.570;2023-01-25T07:13:42;99578.81;;;-0.42;100.00
20987;BME280;10652;50.306;8.570;2023-01-25T07:17:46;99582.94;;;-0.50;100.00
20987;BME280;10652;50.306;8.570;2023-01-25T07:21:48;99579.63;;;-0.44;100.00
20987;BME280;10652;50.306;8.570;2023-01-25T07:25:50;99584.28;;;-0.27;100.00
20987;BME280;10652;50.306;8.570;2023-01-25T07:29:52;99572.47;;;-0.15;100.00
20987;BME280;10652;50.306;8.570;2023-01-25T07:33:56;99569.84;;;-0.17;100.00
20987;BME280;10652;50.306;8.570;2023-01-25T07:37:58;99568.34;;;-0.48;100.00
20987;BME280;10652;50.306;8.570;2023-01-25T07:42:00;99560.84;;;-0.78;100.00
20987;BME280;10652;50.306;8.570;2023-01-25T07:46:08;99560.84;;;-0.76;100.00
20987;BME280;10652;50.306;8.570;2023-01-25T07:50:12;99559.44;;;-0.62;100.00
20987;BME280;10652;50.306;8.570;2023-01-25T07:54:14;99564.94;;;-0.47;100.00
20987;BME280;10652;50.306;8.570;2023-01-25T07:58:16;99559.28;;;-0.29;100.00
20987;BME280;10652;50.306;8.570;2023-01-25T08:02:18;99562.97;;;-0.16;100.00
20987;BME280;10652;50.306;8.570;2023-01-25T08:06:25;99560.41;;;-0.16;100.00
20987;BME280;10652;50.306;8.570;2023-01-25T08:10:31;99567.50;;;-0.06;100.00
20987;BME280;10652;50.306;8.570;2023-01-25T08:14:33;99574.03;;;-0.24;100.00
20987;BME280;10652;50.306;8.570;2023-01-25T08:18:35;99578.75;;;-0.45;100.00
20987;BME280;10652;50.306;8.570;2023-01-25T08:22:38;99585.66;;;-0.44;100.00
20987;BME280;10652;50.306;8.570;2023-01-25T08:26:40;99577.97;;;-0.41;100.00
20987;BME280;10652;50.306;8.570;2023-01-25T08:30:42;99569.63;;;-0.29;100.00
20987;BME280;10652;50.306;8.570;2023-01-25T08:34:57;99570.72;;;-0.16;100.00
20987;BME280;10652;50.306;8.570;2023-01-25T08:39:05;99563.06;;;-0.12;100.00
20987;BME280;10652;50.306;8.570;2023-01-25T08:43:07;99551.84;;;-0.14;100.00
20987;BME280;10652;50.306;8.570;2023-01-25T08:47:09;99555.97;;;-0.22;100.00
20987;BME280;10652;50.306;8.570;2023-01-25T08:51:12;99547.03;;;-0.39;100.00
20987;BME280;10652;50.306;8.570;2023-01-25T08:55:15;99558.09;;;-0.45;100.00
20987;BME280;10652;50.306;8.570;2023-01-25T08:59:17;99547.38;;;-0.63;100.00
20987;BME280;10652;50.306;8.570;2023-01-25T09:03:19;99552.44;;;-0.69;100.00
20987;BME280;10652;50.306;8.570;2023-01-25T09:07:21;99543.28;;;-0.53;100.00
20987;BME280;10652;50.306;8.570;2023-01-25T09:11:23;99535.72;;;-0.46;100.00
20987;BME280;10652;50.306;8.570;2023-01-25T09:15:25;99543.31;;;-0.52;100.00
20987;BME280;10652;50.306;8.570;2023-01-25T09:19:27;99535.63;;;-0.49;100.00
20987;BME280;10652;50.306;8.570;2023-01-25T09:23:30;99535.13;;;-0.33;100.00
20987;BME280;10652;50.306;8.570;2023-01-25T09:27:34;99524.91;;;-0.27;100.00
20987;BME280;10652;50.306;8.570;2023-01-25T09:31:37;99523.47;;;-0.12;100.00
20987;BME280;10652;50.306;8.570;2023-01-25T09:35:48;99518.34;;;-0.11;100.00
20987;BME280;10652;50.306;8.570;2023-01-25T09:39:50;99520.78;;;-0.18;100.00
20987;BME280;10652;50.306;8.570;2023-01-25T09:44:02;99527.44;;;-0.30;100.00
20987;BME280;10652;50.306;8.570;2023-01-25T09:48:31;99537.56;;;-0.39;100.00
20987;BME280;10652;50.306;8.570;2023-01-25T09:53:12;99516.88;;;-0.42;100.00
20987;BME280;10652;50.306;8.570;2023-01-25T10:05:45;99506.47;;;-0.45;100.00
20987;BME280;10652;50.306;8.570;2023-01-25T10:09:50;99501.38;;;-0.42;100.00
20987;BME280;10652;50.306;8.570;2023-01-25T10:13:55;99496.44;;;-0.30;100.00
20987;BME280;10652;50.306;8.570;2023-01-25T10:18:03;99488.84;;;-0.24;100.00
20987;BME280;10652;50.306;8.570;2023-01-25T10:22:20;99488.47;;;-0.42;100.00
20987;BME280;10652;50.306;8.570;2023-01-25T10:26:26;99490.38;;;-0.33;100.00
20987;BME280;10652;50.306;8.570;2023-01-25T10:30:31;99482.06;;;-0.17;100.00
20987;BME280;10652;50.306;8.570;2023-01-25T10:34:40;99478.28;;;0.14;100.00
20987;BME280;10652;50.306;8.570;2023-01-25T10:38:57;99464.81;;;0.30;100.00
20987;BME280;10652;50.306;8.570;2023-01-25T10:43:06;99451.19;;;0.40;100.00
20987;BME280;10652;50.306;8.570;2023-01-25T10:47:35;99456.69;;;0.61;100.00
20987;BME280;10652;50.306;8.570;2023-01-25T10:51:38;99455.19;;;0.77;100.00
20987;BME280;10652;50.306;8.570;2023-01-25T10:55:54;99446.38;;;0.64;100.00
20987;BME280;10652;50.306;8.570;2023-01-25T11:00:03;99445.66;;;0.73;100.00
20987;BME280;10652;50.306;8.570;2023-01-25T11:08:38;99431.25;;;0.92;100.00
20987;BME280;10652;50.306;8.570;2023-01-25T11:12:40;99429.75;;;1.09;100.00
20987;BME280;10652;50.306;8.570;2023-01-25T11:16:44;99430.50;;;0.99;98.75
20987;BME280;10652;50.306;8.570;2023-01-25T11:21:19;99423.25;;;0.72;96.28
20987;BME280;10652;50.306;8.570;2023-01-25T11:25:30;99419.50;;;0.55;97.73
20987;BME280;10652;50.306;8.570;2023-01-25T11:29:32;99411.00;;;0.59;98.69
20987;BME280;10652;50.306;8.570;2023-01-25T11:33:34;99400.56;;;0.56;97.19
20987;BME280;10652;50.306;8.570;2023-01-25T11:37:52;99399.69;;;0.55;97.20
20987;BME280;10652;50.306;8.570;2023-01-25T11:50:44;99350.06;;;0.82;96.59
20987;BME280;10652;50.306;8.570;2023-01-25T12:12:56;99320.84;;;0.88;93.63
20987;BME280;10652;50.306;8.570;2023-01-25T12:17:13;99315.47;;;0.73;93.03
20987;BME280;10652;50.306;8.570;2023-01-25T12:21:42;99309.09;;;0.45;94.19
20987;BME280;10652;50.306;8.570;2023-01-25T12:26:06;99303.19;;;0.55;96.24
20987;BME280;10652;50.306;8.570;2023-01-25T12:30:23;99295.44;;;0.56;94.81
20987;BME280;10652;50.306;8.570;2023-01-25T12:34:36;99288.63;;;0.61;96.94
20987;BME280;10652;50.306;8.570;2023-01-25T12:42:58;99276.88;;;0.89;96.68
20987;BME280;10652;50.306;8.570;2023-01-25T12:51:11;99259.00;;;1.10;95.09
20987;BME280;10652;50.306;8.570;2023-01-25T12:55:16;99258.13;;;1.08;94.69
20987;BME280;10652;50.306;8.570;2023-01-25T12:59:39;99259.75;;;0.99;92.85
20987;BME280;10652;50.306;8.570;2023-01-25T13:08:19;99226.91;;;0.93;94.72
20987;BME280;10652;50.306;8.570;2023-01-25T13:12:55;99212.16;;;0.83;93.86
20987;BME280;10652;50.306;8.570;2023-01-25T13:21:43;99200.06;;;0.81;93.46
20987;BME280;10652;50.306;8.570;2023-01-25T13:25:46;99194.97;;;0.90;94.70
20987;BME280;10652;50.306;8.570;2023-01-25T13:38:36;99174.44;;;1.06;94.61
20987;BME280;10652;50.306;8.570;2023-01-25T13:42:38;99164.97;;;1.08;94.29
20987;BME280;10652;50.306;8.570;2023-01-25T13:46:40;99170.09;;;1.05;94.08
20987;BME280;10652;50.306;8.570;2023-01-25T13:50:46;99162.19;;;0.89;92.45
20987;BME280;10652;50.306;8.570;2023-01-25T13:54:53;99152.63;;;0.82;93.24
20987;BME280;10652;50.306;8.570;2023-01-25T13:58:56;99148.28;;;0.78;94.17
20987;BME280;10652;50.306;8.570;2023-01-25T14:02:58;99141.44;;;0.83;94.57
20987;BME280;10652;50.306;8.570;2023-01-25T14:07:02;99134.59;;;0.91;94.66
20987;BME280;10652;50.306;8.570;2023-01-25T14:11:17;99128.63;;;0.95;93.25
20987;BME280;10652;50.306;8.570;2023-01-25T14:15:28;99124.22;;;0.83;93.25
20987;BME280;10652;50.306;8.570;2023-01-25T14:19:34;99120.00;;;0.94;93.67
20987;BME280;10652;50.306;8.570;2023-01-25T14:23:37;99118.31;;;0.98;92.88
20987;BME280;10652;50.306;8.570;2023-01-25T14:27:53;99120.03;;;0.97;92.85
20987;BME280;10652;50.306;8.570;2023-01-25T14:31:55;99108.75;;;0.91;92.11
20987;BME280;10652;50.306;8.570;2023-01-25T14:36:27;99091.38;;;0.78;92.02
20987;BME280;10652;50.306;8.570;2023-01-25T14:40:30;99090.47;;;0.69;92.31
20987;BME280;10652;50.306;8.570;2023-01-25T14:44:32;99083.56;;;0.67;93.13
20987;BME280;10652;50.306;8.570;2023-01-25T14:48:41;99074.09;;;0.71;93.53
20987;BME280;10652;50.306;8.570;2023-01-25T14:52:43;99078.44;;;0.72;93.10
20987;BME280;10652;50.306;8.570;2023-01-25T14:56:47;99063.75;;;0.71;94.05
20987;BME280;10652;50.306;8.570;2023-01-25T15:00:51;99067.22;;;0.73;93.98
20987;BME280;10652;50.306;8.570;2023-01-25T15:05:04;99061.31;;;0.86;95.21
20987;BME280;10652;50.306;8.570;2023-01-25T15:09:34;99050.13;;;0.93;94.13
20987;BME280;10652;50.306;8.570;2023-01-25T15:13:37;99050.19;;;1.02;93.91
20987;BME280;10652;50.306;8.570;2023-01-25T15:21:41;99045.47;;;0.51;91.51
20987;BME280;10652;50.306;8.570;2023-01-25T15:25:51;99042.88;;;0.48;92.96
20987;BME280;10652;50.306;8.570;2023-01-25T15:29:53;99045.50;;;0.49;93.31
20987;BME280;10652;50.306;8.570;2023-01-25T15:33:56;99035.19;;;0.57;93.85
20987;BME280;10652;50.306;8.570;2023-01-25T15:37:59;99037.00;;;0.68;93.70
20987;BME280;10652;50.306;8.570;2023-01-25T15:42:01;99043.06;;;0.67;92.30
20987;BME280;10652;50.306;8.570;2023-01-25T15:46:04;99030.94;;;0.63;92.12
20987;BME280;10652;50.306;8.570;2023-01-25T15:50:16;99033.38;;;0.47;91.42
20987;BME280;10652;50.306;8.570;2023-01-25T15:54:18;99037.50;;;0.25;92.00
20987;BME280;10652;50.306;8.570;2023-01-25T15:58:30;99033.91;;;0.11;93.21
20987;BME280;10652;50.306;8.570;2023-01-25T16:02:33;99030.47;;;0.12;94.93
20987;BME280;10652;50.306;8.570;2023-01-25T16:06:42;99036.56;;;0.20;95.09
20987;BME280;10652;50.306;8.570;2023-01-25T16:10:45;99037.44;;;0.20;95.03
20987;BME280;10652;50.306;8.570;2023-01-25T16:14:47;99034.03;;;0.21;95.77
20987;BME280;10652;50.306;8.570;2023-01-25T16:18:50;99037.41;;;0.16;94.87
20987;BME280;10652;50.306;8.570;2023-01-25T16:22:52;99027.00;;;0.10;95.49
20987;BME280;10652;50.306;8.570;2023-01-25T16:26:55;99020.94;;;0.06;95.88
20987;BME280;10652;50.306;8.570;2023-01-25T16:30:58;99025.25;;;0.04;95.89
20987;BME280;10652;50.306;8.570;2023-01-25T16:35:01;99023.47;;;0.02;96.58
20987;BME280;10652;50.306;8.570;2023-01-25T16:39:14;99030.34;;;0.01;98.70
20987;BME280;10652;50.306;8.570;2023-01-25T16:43:16;99023.50;;;0.05;98.56
20987;BME280;10652;50.306;8.570;2023-01-25T16:47:19;99021.84;;;0.08;98.38
20987;BME280;10652;50.306;8.570;2023-01-25T16:51:26;99027.88;;;0.09;98.88
20987;BME280;10652;50.306;8.570;2023-01-25T16:55:29;99016.66;;;0.10;98.14
20987;BME280;10652;50.306;8.570;2023-01-25T16:59:31;99013.13;;;-0.01;97.37
20987;BME280;10652;50.306;8.570;2023-01-25T17:03:33;99004.47;;;-0.06;97.95
20987;BME280;10652;50.306;8.570;2023-01-25T17:07:35;98999.41;;;0.06;99.14
20987;BME280;10652;50.306;8.570;2023-01-25T17:11:38;99006.34;;;0.11;98.22
20987;BME280;10652;50.306;8.570;2023-01-25T17:15:40;98991.72;;;0.12;98.92
20987;BME280;10652;50.306;8.570;2023-01-25T17:19:43;98985.72;;;0.16;99.13
20987;BME280;10652;50.306;8.570;2023-01-25T17:23:45;98992.63;;;0.17;99.04
20987;BME280;10652;50.306;8.570;2023-01-25T17:27:47;98999.53;;;0.18;98.78
20987;BME280;10652;50.306;8.570;2023-01-25T17:31:49;99002.00;;;0.07;97.95
20987;BME280;10652;50.306;8.570;2023-01-25T17:35:52;98989.88;;;0.00;97.73
20987;BME280;10652;50.306;8.570;2023-01-25T17:39:59;98976.81;;;-0.13;97.64
20987;BME280;10652;50.306;8.570;2023-01-25T17:44:01;98965.56;;;-0.22;97.84
20987;BME280;10652;50.306;8.570;2023-01-25T17:48:07;98971.50;;;-0.27;98.53
20987;BME280;10652;50.306;8.570;2023-01-25T17:52:09;98972.34;;;-0.33;99.33
20987;BME280;10652;50.306;8.570;2023-01-25T17:56:12;98975.06;;;-0.17;100.00
20987;BME280;10652;50.306;8.570;2023-01-25T18:00:15;98959.72;;;-0.05;100.00
20987;BME280;10652;50.306;8.570;2023-01-25T18:04:17;98955.41;;;-0.03;100.00
20987;BME280;10652;50.306;8.570;2023-01-25T18:08:21;98945.16;;;0.04;100.00
20987;BME280;10652;50.306;8.570;2023-01-25T18:12:23;98946.84;;;0.01;100.00
20987;BME280;10652;50.306;8.570;2023-01-25T18:16:27;98945.88;;;-0.10;100.00
20987;BME280;10652;50.306;8.570;2023-01-25T18:20:29;98939.06;;;-0.02;100.00
20987;BME280;10652;50.306;8.570;2023-01-25T18:24:33;98937.19;;;-0.20;98.62
20987;BME280;10652;50.306;8.570;2023-01-25T18:28:36;98926.72;;;-0.34;98.94
20987;BME280;10652;50.306;8.570;2023-01-25T18:32:39;98927.56;;;-0.35;99.67
20987;BME280;10652;50.306;8.570;2023-01-25T18:36:41;98916.38;;;-0.37;100.00
20987;BME280;10652;50.306;8.570;2023-01-25T18:40:43;98905.22;;;-0.31;100.00
20987;BME280;10652;50.306;8.570;2023-01-25T18:44:45;98904.41;;;-0.26;100.00
20987;BME280;10652;50.306;8.570;2023-01-25T18:48:49;98902.78;;;-0.19;100.00
20987;BME280;10652;50.306;8.570;2023-01-25T18:52:52;98901.84;;;-0.23;99.28
20987;BME280;10652;50.306;8.570;2023-01-25T18:56:55;98904.13;;;-0.56;97.07
20987;BME280;10652;50.306;8.570;2023-01-25T19:01:17;98899.78;;;-0.60;99.46
20987;BME280;10652;50.306;8.570;2023-01-25T19:05:20;98897.00;;;-0.78;99.56
20987;BME280;10652;50.306;8.570;2023-01-25T19:09:24;98887.63;;;-0.67;100.00
20987;BME280;10652;50.306;8.570;2023-01-25T19:13:26;98868.09;;;-0.47;100.00
20987;BME280;10652;50.306;8.570;2023-01-25T19:17:30;98873.38;;;-0.33;100.00
20987;BME280;10652;50.306;8.570;2023-01-25T19:21:32;98877.47;;;-0.53;98.90
20987;BME280;10652;50.306;8.570;2023-01-25T19:25:35;98866.06;;;-0.75;100.00
20987;BME280;10652;50.306;8.570;2023-01-25T19:29:37;98858.91;;;-1.00;99.85
20987;BME280;10652;50.306;8.570;2023-01-25T19:33:39;98870.06;;;-1.00;100.00
20987;BME280;10652;50.306;8.570;2023-01-25T19:37:41;98865.84;;;-0.93;100.00
20987;BME280;10652;50.306;8.570;2023-01-25T19:41:43;98856.09;;;-1.17;100.00
20987;BME280;10652;50.306;8.570;2023-01-25T19:45:46;98852.63;;;-1.21;100.00
20987;BME280;10652;50.306;8.570;2023-01-25T19:49:48;98841.63;;;-1.04;100.00
20987;BME280;10652;50.306;8.570;2023-01-25T19:54:02;98841.91;;;-0.83;100.00
20987;BME280;10652;50.306;8.570;2023-01-25T19:58:04;98826.56;;;-0.68;100.00
20987;BME280;10652;50.306;8.570;2023-01-25T20:02:10;98821.50;;;-0.60;100.00
20987;BME280;10652;50.306;8.570;2023-01-25T20:06:14;98825.75;;;-0.62;100.00
20987;BME280;10652;50.306;8.570;2023-01-25T20:10:16;98812.91;;;-0.58;100.00
20987;BME280;10652;50.306;8.570;2023-01-25T20:14:18;98812.09;;;-0.52;100.00
20987;BME280;10652;50.306;8.570;2023-01-25T20:18:21;98821.56;;;-0.53;100.00
20987;BME280;10652;50.306;8.570;2023-01-25T20:22:23;98825.88;;;-0.52;100.00
20987;BME280;10652;50.306;8.570;2023-01-25T20:26:31;98827.53;;;-0.60;100.00
20987;BME280;10652;50.306;8.570;2023-01-25T20:30:33;98833.44;;;-0.70;100.00
20987;BME280;10652;50.306;8.570;2023-01-25T20:34:35;98832.53;;;-0.75;100.00
20987;BME280;10652;50.306;8.570;2023-01-25T20:38:37;98832.47;;;-0.80;100.00
20987;BME280;10652;50.306;8.570;2023-01-25T20:42:40;98827.25;;;-0.87;100.00
20987;BME280;10652;50.306;8.570;2023-01-25T20:46:42;98821.22;;;-0.88;100.00
20987;BME280;10652;50.306;8.570;2023-01-25T20:50:44;98803.16;;;-0.86;100.00
20987;BME280;10652;50.306;8.570;2023-01-25T20:54:47;98802.38;;;-0.82;100.00
20987;BME280;10652;50.306;8.570;2023-01-25T20:58:50;98804.13;;;-0.77;100.00
20987;BME280;10652;50.306;8.570;2023-01-25T21:02:52;98810.09;;;-0.81;100.00
20987;BME280;10652;50.306;8.570;2023-01-25T21:06:54;98802.19;;;-0.97;100.00
20987;BME280;10652;50.306;8.570;2023-01-25T21:10:57;98791.75;;;-1.09;100.00
20987;BME280;10652;50.306;8.570;2023-01-25T21:15:00;98783.34;;;-0.90;100.00
20987;BME280;10652;50.306;8.570;2023-01-25T21:19:05;98778.28;;;-0.83;100.00
20987;BME280;10652;50.306;8.570;2023-01-25T21:23:07;98780.88;;;-0.81;100.00
20987;BME280;10652;50.306;8.570;2023-01-25T21:27:09;98780.69;;;-0.99;99.70
20987;BME280;10652;50.306;8.570;2023-01-25T21:31:14;98782.28;;;-1.09;100.00
20987;BME280;10652;50.306;8.570;2023-01-25T21:35:16;98772.91;;;-1.02;100.00
20987;BME280;10652;50.306;8.570;2023-01-25T21:39:18;98753.84;;;-1.17;100.00
20987;BME280;10652;50.306;8.570;2023-01-25T21:43:20;98757.16;;;-1.30;100.00
20987;BME280;10652;50.306;8.570;2023-01-25T21:47:22;98750.41;;;-1.19;100.00
20987;BME280;10652;50.306;8.570;2023-01-25T21:51:31;98741.13;;;-1.03;100.00
20987;BME280;10652;50.306;8.570;2023-01-25T21:55:36;98736.91;;;-0.93;100.00
20987;BME280;10652;50.306;8.570;2023-01-25T21:59:38;98724.06;;;-0.86;100.00
20987;BME280;10652;50.306;8.570;2023-01-25T22:03:45;98717.28;;;-0.76;100.00
20987;BME280;10652;50.306;8.570;2023-01-25T22:07:47;98718.13;;;-0.80;100.00
20987;BME280;10652;50.306;8.570;2023-01-25T22:11:51;98708.66;;;-0.81;100.00
20987;BME280;10652;50.306;8.570;2023-01-25T22:15:57;98709.53;;;-0.79;100.00
20987;BME280;10652;50.306;8.570;2023-01-25T22:19:59;98711.22;;;-0.81;99.74
20987;BME280;10652;50.306;8.570;2023-01-25T22:24:03;98707.88;;;-0.74;100.00
20987;BME280;10652;50.306;8.570;2023-01-25T22:28:12;98710.41;;;-0.76;98.68
20987;BME280;10652;50.306;8.570;2023-01-25T22:32:15;98712.84;;;-0.91;97.26
20987;BME280;10652;50.306;8.570;2023-01-25T22:36:19;98717.97;;;-0.95;97.33
20987;BME280;10652;50.306;8.570;2023-01-25T22:40:21;98700.81;;;-0.93;98.33
20987;BME280;10652;50.306;8.570;2023-01-25T22:44:23;98694.81;;;-0.89;98.21